createdAt,value
2018-07-05T00:00:55.394Z,952.43
2018-07-05T00:01:55.389Z,952.47
2018-07-05T00:02:55.384Z,952.47
2018-07-05T00:03:55.378Z,952.43
2018-07-05T00:04:55.375Z,952.44
2018-07-05T00:05:55.372Z,952.42
2018-07-05T00:06:55.365Z,952.44
2018-07-05T00:07:55.361Z,952.42
2018-07-05T00:08:55.356Z,952.44
2018-07-05T00:09:55.356Z,952.47
2018-07-05T00:10:55.347Z,952.47
2018-07-05T00:11:55.342Z,952.45
2018-07-05T00:12:55.339Z,952.45
2018-07-05T00:13:55.335Z,952.42
2018-07-05T00:14:55.328Z,952.44
2018-07-05T00:15:55.328Z,952.43
2018-07-05T00:16:55.321Z,952.4
2018-07-05T00:17:55.316Z,952.35
2018-07-05T00:18:55.310Z,952.33
2018-07-05T00:19:55.308Z,952.3
2018-07-05T00:20:55.303Z,952.33
2018-07-05T00:21:55.297Z,952.3
2018-07-05T00:22:55.299Z,952.3
2018-07-05T00:23:55.293Z,952.31
2018-07-05T00:24:55.284Z,952.31
2018-07-05T00:25:55.281Z,952.25
2018-07-05T00:26:55.276Z,952.26
2018-07-05T00:27:55.272Z,952.29
2018-07-05T00:28:55.267Z,952.28
2018-07-05T00:29:55.262Z,952.24
2018-07-05T00:30:55.259Z,952.25
2018-07-05T00:31:55.256Z,952.23
2018-07-05T00:32:55.249Z,952.25
2018-07-05T00:33:55.244Z,952.23
2018-07-05T00:34:55.240Z,952.25
2018-07-05T00:35:55.235Z,952.25
2018-07-05T00:36:55.246Z,952.28
2018-07-05T00:37:55.228Z,952.24
2018-07-05T00:38:55.224Z,952.24
2018-07-05T00:39:55.219Z,952.21
2018-07-05T00:40:55.214Z,952.26
2018-07-05T00:41:55.211Z,952.22
2018-07-05T00:42:55.206Z,952.23
2018-07-05T00:43:55.203Z,952.29
2018-07-05T00:44:55.200Z,952.27
2018-07-05T00:45:55.195Z,952.25
2018-07-05T00:46:55.188Z,952.22
2018-07-05T00:47:55.185Z,952.26
2018-07-05T00:48:55.194Z,952.21
2018-07-05T00:49:55.177Z,952.21
2018-07-05T00:50:55.172Z,952.16
2018-07-05T00:51:55.168Z,952.14
2018-07-05T00:52:55.165Z,952.15
2018-07-05T00:53:55.159Z,952.14
2018-07-05T00:54:55.161Z,952.11
2018-07-05T00:55:55.150Z,952.12
2018-07-05T00:56:55.145Z,952.12
2018-07-05T00:57:55.141Z,952.12
2018-07-05T00:58:55.147Z,952.14
2018-07-05T00:59:55.132Z,952.12
2018-07-05T01:00:55.128Z,952.13
2018-07-05T01:01:55.124Z,952.14
2018-07-05T01:02:55.118Z,952.13
2018-07-05T01:03:55.114Z,952.16
2018-07-05T01:04:55.109Z,952.13
2018-07-05T01:05:55.109Z,952.11
2018-07-05T01:06:55.099Z,952.08
2018-07-05T01:07:55.096Z,952.07
2018-07-05T01:08:55.091Z,952.08
2018-07-05T01:09:55.086Z,952.1
2018-07-05T01:10:55.082Z,952.11
2018-07-05T01:11:55.079Z,952.11
2018-07-05T01:12:55.074Z,952.06
2018-07-05T01:13:55.069Z,952.04
2018-07-05T01:14:55.065Z,952.07
2018-07-05T01:15:55.060Z,952
2018-07-05T01:16:55.056Z,952.01
2018-07-05T01:17:55.051Z,951.99
2018-07-05T01:18:55.053Z,952.05
2018-07-05T01:19:55.042Z,952
2018-07-05T01:20:55.041Z,952.03
2018-07-05T01:21:55.034Z,952.02
2018-07-05T01:22:55.031Z,951.99
2018-07-05T01:23:55.024Z,951.98
2018-07-05T01:24:55.020Z,951.97
2018-07-05T01:25:55.017Z,951.96
2018-07-05T01:26:55.011Z,951.93
2018-07-05T01:27:55.008Z,951.93
2018-07-05T01:28:55.004Z,951.91
2018-07-05T01:29:54.998Z,951.92
2018-07-05T01:30:54.994Z,951.93
2018-07-05T01:31:54.991Z,951.94
2018-07-05T01:32:54.986Z,951.97
2018-07-05T01:33:54.982Z,951.97
2018-07-05T01:34:54.976Z,952.02
2018-07-05T01:35:54.973Z,952
2018-07-05T01:36:54.968Z,952.01
2018-07-05T01:37:54.963Z,951.95
2018-07-05T01:38:54.958Z,951.95
2018-07-05T01:39:54.954Z,951.96
2018-07-05T01:40:54.951Z,951.93
2018-07-05T01:41:54.945Z,951.93
2018-07-05T01:42:54.941Z,951.95
2018-07-05T01:43:54.938Z,951.93
2018-07-05T01:44:54.934Z,951.93
2018-07-05T01:45:54.929Z,951.93
2018-07-05T01:46:54.922Z,951.96
2018-07-05T01:47:54.918Z,952.03
2018-07-05T01:48:54.914Z,952
2018-07-05T01:49:54.908Z,951.97
2018-07-05T01:50:54.904Z,951.98
2018-07-05T01:51:54.900Z,951.99
2018-07-05T01:52:54.896Z,952
2018-07-05T01:53:54.891Z,951.95
2018-07-05T01:54:54.886Z,951.99
2018-07-05T01:55:54.883Z,952.01
2018-07-05T01:56:54.877Z,951.98
2018-07-05T01:57:54.872Z,951.97
2018-07-05T01:58:54.868Z,951.99
2018-07-05T01:59:54.863Z,951.94
2018-07-05T02:00:54.858Z,952.01
2018-07-05T02:01:54.854Z,951.95
2018-07-05T02:02:54.849Z,951.93
2018-07-05T02:03:54.844Z,951.95
2018-07-05T02:04:54.839Z,951.94
2018-07-05T02:05:54.835Z,951.92
2018-07-05T02:06:54.830Z,951.9
2018-07-05T02:07:54.824Z,951.91
2018-07-05T02:08:54.819Z,951.92
2018-07-05T02:09:54.815Z,951.9
2018-07-05T02:10:54.811Z,951.91
2018-07-05T02:11:54.805Z,951.88
2018-07-05T02:12:54.801Z,951.92
2018-07-05T02:13:54.798Z,951.96
2018-07-05T02:14:54.791Z,951.92
2018-07-05T02:15:54.786Z,951.93
2018-07-05T02:16:54.783Z,951.91
2018-07-05T02:17:54.790Z,951.89
2018-07-05T02:18:54.773Z,951.92
2018-07-05T02:19:54.767Z,951.94
2018-07-05T02:20:54.765Z,951.89
2018-07-05T02:21:54.757Z,951.91
2018-07-05T02:22:54.754Z,951.82
2018-07-05T02:23:54.749Z,951.84
2018-07-05T02:24:54.745Z,951.78
2018-07-05T02:25:54.738Z,951.74
2018-07-05T02:26:54.734Z,951.73
2018-07-05T02:27:54.731Z,951.72
2018-07-05T02:28:54.723Z,951.73
2018-07-05T02:29:54.719Z,951.71
2018-07-05T02:30:54.716Z,951.64
2018-07-05T02:31:54.709Z,951.66
2018-07-05T02:32:54.708Z,951.63
2018-07-05T02:33:54.704Z,951.66
2018-07-05T02:34:54.696Z,951.64
2018-07-05T02:35:54.690Z,951.68
2018-07-05T02:36:54.685Z,951.7
2018-07-05T02:37:54.679Z,951.68
2018-07-05T02:38:54.674Z,951.65
2018-07-05T02:39:54.671Z,951.67
2018-07-05T02:40:54.664Z,951.63
2018-07-05T02:41:54.660Z,951.64
2018-07-05T02:42:54.655Z,951.63
2018-07-05T02:43:54.650Z,951.63
2018-07-05T02:44:54.645Z,951.67
2018-07-05T02:45:54.640Z,951.65
2018-07-05T02:46:54.636Z,951.63
2018-07-05T02:47:54.628Z,951.7
2018-07-05T02:48:54.623Z,951.71
2018-07-05T02:49:54.620Z,951.68
2018-07-05T02:50:54.618Z,951.67
2018-07-05T02:51:54.609Z,951.65
2018-07-05T02:52:54.607Z,951.67
2018-07-05T02:53:54.600Z,951.62
2018-07-05T02:54:54.594Z,951.63
2018-07-05T02:55:54.589Z,951.62
2018-07-05T02:56:54.584Z,951.65
2018-07-05T02:57:54.580Z,951.61
2018-07-05T02:58:54.574Z,951.64
2018-07-05T02:59:54.572Z,951.7
2018-07-05T03:00:54.565Z,951.67
2018-07-05T03:01:54.559Z,951.68
2018-07-05T03:02:54.557Z,951.67
2018-07-05T03:03:54.549Z,951.7
2018-07-05T03:04:54.546Z,951.67
2018-07-05T03:05:54.540Z,951.63
2018-07-05T03:06:54.535Z,951.61
2018-07-05T03:07:54.530Z,951.67
2018-07-05T03:08:54.525Z,951.69
2018-07-05T03:09:54.519Z,951.66
2018-07-05T03:10:54.565Z,951.68
2018-07-05T03:11:54.512Z,951.68
2018-07-05T03:12:54.504Z,951.67
2018-07-05T03:13:54.500Z,951.64
2018-07-05T03:14:54.496Z,951.62
2018-07-05T03:15:54.489Z,951.65
2018-07-05T03:16:54.484Z,951.66
2018-07-05T03:17:54.483Z,951.7
2018-07-05T03:18:54.474Z,951.67
2018-07-05T03:19:54.469Z,951.67
2018-07-05T03:20:54.467Z,951.69
2018-07-05T03:21:54.459Z,951.68
2018-07-05T03:22:54.454Z,951.69
2018-07-05T03:23:54.449Z,951.66
2018-07-05T03:24:54.444Z,951.64
2018-07-05T03:25:54.439Z,951.66
2018-07-05T03:26:54.434Z,951.68
2018-07-05T03:27:54.427Z,951.71
2018-07-05T03:28:54.425Z,951.71
2018-07-05T03:29:54.418Z,951.72
2018-07-05T03:30:54.414Z,951.76
2018-07-05T03:31:54.408Z,951.84
2018-07-05T03:32:54.402Z,951.79
2018-07-05T03:33:54.399Z,951.81
2018-07-05T03:34:54.392Z,951.76
2018-07-05T03:35:54.387Z,951.75
2018-07-05T03:36:54.383Z,951.74
2018-07-05T03:37:54.378Z,951.74
2018-07-05T03:38:54.371Z,951.78
2018-07-05T03:39:54.366Z,951.75
2018-07-05T03:40:54.361Z,951.8
2018-07-05T03:41:54.357Z,951.8
2018-07-05T03:42:54.354Z,951.83
2018-07-05T03:43:54.349Z,951.83
2018-07-05T03:44:54.341Z,951.88
2018-07-05T03:45:54.336Z,951.85
2018-07-05T03:46:54.332Z,951.88
2018-07-05T03:47:54.328Z,951.9
2018-07-05T03:48:54.322Z,951.87
2018-07-05T03:49:54.316Z,951.85
2018-07-05T03:50:54.312Z,951.83
2018-07-05T03:51:54.306Z,951.83
2018-07-05T03:52:54.302Z,951.84
2018-07-05T03:53:54.296Z,951.84
2018-07-05T03:54:54.293Z,951.85
2018-07-05T03:55:54.288Z,951.84
2018-07-05T03:56:54.289Z,951.87
2018-07-05T03:57:54.278Z,951.84
2018-07-05T03:58:54.275Z,951.86
2018-07-05T03:59:54.268Z,951.9
2018-07-05T04:00:54.261Z,951.87
2018-07-05T04:01:54.258Z,951.86
2018-07-05T04:02:54.256Z,951.86
2018-07-05T04:03:54.248Z,951.89
2018-07-05T04:04:54.242Z,951.91
2018-07-05T04:05:54.237Z,951.9
2018-07-05T04:06:54.233Z,951.94
2018-07-05T04:07:54.227Z,951.96
2018-07-05T04:08:54.222Z,951.91
2018-07-05T04:09:54.219Z,951.89
2018-07-05T04:10:54.212Z,951.85
2018-07-05T04:11:54.208Z,951.81
2018-07-05T04:12:54.207Z,951.83
2018-07-05T04:13:54.199Z,951.82
2018-07-05T04:14:54.194Z,951.83
2018-07-05T04:15:54.320Z,951.82
2018-07-05T04:16:54.191Z,951.83
2018-07-05T04:17:54.179Z,951.82
2018-07-05T04:18:54.176Z,951.86
2018-07-05T04:19:54.169Z,951.87
2018-07-05T04:20:54.165Z,951.85
2018-07-05T04:21:54.160Z,951.83
2018-07-05T04:22:54.154Z,951.82
2018-07-05T04:23:54.150Z,951.84
2018-07-05T04:24:54.144Z,951.83
2018-07-05T04:25:54.140Z,951.81
2018-07-05T04:26:54.136Z,951.83
2018-07-05T04:27:54.130Z,951.81
2018-07-05T04:28:54.126Z,951.83
2018-07-05T04:29:54.121Z,951.78
2018-07-05T04:30:54.116Z,951.79
2018-07-05T04:31:54.112Z,951.78
2018-07-05T04:32:54.108Z,951.77
2018-07-05T04:33:54.104Z,951.79
2018-07-05T04:34:54.109Z,951.75
2018-07-05T04:35:54.093Z,951.75
2018-07-05T04:36:54.089Z,951.76
2018-07-05T04:37:54.090Z,951.72
2018-07-05T04:38:54.090Z,951.75
2018-07-05T04:39:54.076Z,951.72
2018-07-05T04:40:54.071Z,951.73
2018-07-05T04:41:54.071Z,951.72
2018-07-05T04:42:54.062Z,951.76
2018-07-05T04:43:54.060Z,951.73
2018-07-05T04:44:54.054Z,951.75
2018-07-05T04:45:54.051Z,951.76
2018-07-05T04:46:54.047Z,951.77
2018-07-05T04:47:54.093Z,951.78
2018-07-05T04:48:54.038Z,951.76
2018-07-05T04:49:54.041Z,951.76
2018-07-05T04:50:54.032Z,951.73
2018-07-05T04:51:54.027Z,951.77
2018-07-05T04:52:54.023Z,951.78
2018-07-05T04:53:54.019Z,951.79
2018-07-05T04:54:54.016Z,951.78
2018-07-05T04:55:54.015Z,951.8
2018-07-05T04:56:54.009Z,951.8
2018-07-05T04:57:54.006Z,951.79
2018-07-05T04:58:54.001Z,951.81
2018-07-05T04:59:53.996Z,951.79
2018-07-05T05:00:53.995Z,951.8
2018-07-05T05:01:53.994Z,951.89
2018-07-05T05:02:53.987Z,951.94
2018-07-05T05:03:53.984Z,951.91
2018-07-05T05:04:53.980Z,951.87
2018-07-05T05:05:53.977Z,951.87
2018-07-05T05:06:53.973Z,951.86
2018-07-05T05:07:53.971Z,951.8
2018-07-05T05:08:53.968Z,951.81
2018-07-05T05:09:53.964Z,951.86
2018-07-05T05:10:53.963Z,951.91
2018-07-05T05:11:53.958Z,951.91
2018-07-05T05:12:53.956Z,951.84
2018-07-05T05:13:53.953Z,951.83
2018-07-05T05:14:53.969Z,951.83
2018-07-05T05:15:53.948Z,951.85
2018-07-05T05:16:53.946Z,951.83
2018-07-05T05:17:53.940Z,951.79
2018-07-05T05:18:53.998Z,951.8
2018-07-05T05:19:53.937Z,951.8
2018-07-05T05:20:53.934Z,951.81
2018-07-05T05:21:53.932Z,951.78
2018-07-05T05:22:53.929Z,951.74
2018-07-05T05:23:53.927Z,951.78
2018-07-05T05:24:53.924Z,951.83
2018-07-05T05:25:53.922Z,951.82
2018-07-05T05:26:53.920Z,951.85
2018-07-05T05:27:53.918Z,951.86
2018-07-05T05:28:53.916Z,951.86
2018-07-05T05:29:53.954Z,951.91
2018-07-05T05:30:53.911Z,951.86
2018-07-05T05:31:53.912Z,951.88
2018-07-05T05:32:53.908Z,951.88
2018-07-05T05:33:53.905Z,951.89
2018-07-05T05:34:53.901Z,951.91
2018-07-05T05:35:53.900Z,951.91
2018-07-05T05:36:53.898Z,951.86
2018-07-05T05:37:53.895Z,951.82
2018-07-05T05:38:53.916Z,951.85
2018-07-05T05:39:53.892Z,951.85
2018-07-05T05:40:53.888Z,951.85
2018-07-05T05:41:53.889Z,951.87
2018-07-05T05:42:53.885Z,951.9
2018-07-05T05:43:53.887Z,951.92
2018-07-05T05:44:53.882Z,951.94
2018-07-05T05:45:53.881Z,951.9
2018-07-05T05:46:53.877Z,951.95
2018-07-05T05:47:53.877Z,951.96
2018-07-05T05:48:53.878Z,951.92
2018-07-05T05:49:53.873Z,951.95
2018-07-05T05:50:53.870Z,951.96
2018-07-05T05:51:53.871Z,951.97
2018-07-05T05:52:53.868Z,951.97
2018-07-05T05:53:53.868Z,952.01
2018-07-05T05:54:53.864Z,951.96
2018-07-05T05:55:53.864Z,952.04
2018-07-05T05:56:53.864Z,952.03
2018-07-05T05:57:53.861Z,952.03
2018-07-05T05:58:53.858Z,952.02
2018-07-05T05:59:53.858Z,952.03
2018-07-05T06:00:53.856Z,951.99
2018-07-05T06:01:53.915Z,951.99
2018-07-05T06:02:53.853Z,951.99
2018-07-05T06:03:53.852Z,952.01
2018-07-05T06:04:53.851Z,952
2018-07-05T06:05:53.850Z,952
2018-07-05T06:06:53.850Z,951.98
2018-07-05T06:07:53.852Z,951.99
2018-07-05T06:08:53.846Z,951.95
2018-07-05T06:09:53.846Z,951.9
2018-07-05T06:10:53.845Z,951.9
2018-07-05T06:11:53.843Z,951.92
2018-07-05T06:12:53.844Z,951.91
2018-07-05T06:13:53.842Z,951.86
2018-07-05T06:14:53.841Z,951.87
2018-07-05T06:15:53.839Z,951.85
2018-07-05T06:16:53.838Z,951.79
2018-07-05T06:17:53.838Z,951.8
2018-07-05T06:18:53.841Z,951.82
2018-07-05T06:19:53.836Z,951.8
2018-07-05T06:20:53.835Z,951.83
2018-07-05T06:21:53.834Z,951.81
2018-07-05T06:22:53.834Z,951.82
2018-07-05T06:23:53.831Z,951.85
2018-07-05T06:24:53.830Z,951.85
2018-07-05T06:25:53.830Z,951.87
2018-07-05T06:26:53.830Z,951.88
2018-07-05T06:27:53.830Z,951.91
2018-07-05T06:28:53.827Z,951.89
2018-07-05T06:29:53.833Z,951.91
2018-07-05T06:30:53.829Z,951.9
2018-07-05T06:31:53.825Z,951.94
2018-07-05T06:32:53.826Z,951.94
2018-07-05T06:33:53.825Z,951.91
2018-07-05T06:34:53.824Z,951.96
2018-07-05T06:35:53.824Z,951.91
2018-07-05T06:36:53.824Z,951.93
2018-07-05T06:37:53.821Z,951.92
2018-07-05T06:38:53.820Z,951.92
2018-07-05T06:39:53.821Z,951.97
2018-07-05T06:40:53.820Z,951.97
2018-07-05T06:41:53.820Z,951.96
2018-07-05T06:42:53.819Z,951.98
2018-07-05T06:43:53.820Z,952.01
2018-07-05T06:44:53.821Z,952.03
2018-07-05T06:45:53.820Z,951.95
2018-07-05T06:46:53.819Z,951.95
2018-07-05T06:47:53.820Z,951.94
2018-07-05T06:48:53.820Z,951.94
2018-07-05T06:49:53.820Z,951.94
2018-07-05T06:50:53.821Z,951.95
2018-07-05T06:51:53.825Z,951.91
2018-07-05T06:52:53.837Z,951.93
2018-07-05T06:53:53.825Z,951.91
2018-07-05T06:54:53.827Z,951.9
2018-07-05T06:55:53.829Z,951.89
2018-07-05T06:56:53.832Z,951.87
2018-07-05T06:57:53.835Z,951.89
2018-07-05T06:58:53.838Z,951.87
2018-07-05T06:59:53.843Z,951.88
2018-07-05T07:00:53.847Z,951.91
2018-07-05T07:01:53.851Z,951.87
2018-07-05T07:02:53.856Z,951.87
2018-07-05T07:03:53.860Z,951.8
2018-07-05T07:04:53.867Z,951.84
2018-07-05T07:05:53.872Z,951.87
2018-07-05T07:06:53.878Z,951.89
2018-07-05T07:07:53.882Z,951.85
2018-07-05T07:08:53.889Z,951.81
2018-07-05T07:09:53.895Z,951.86
2018-07-05T07:10:53.902Z,951.9
2018-07-05T07:11:53.908Z,951.89
2018-07-05T07:12:53.916Z,951.85
2018-07-05T07:13:53.921Z,951.9
2018-07-05T07:14:53.930Z,951.84
2018-07-05T07:15:53.975Z,951.9
2018-07-05T07:16:53.944Z,951.93
2018-07-05T07:17:53.952Z,951.93
2018-07-05T07:18:53.962Z,951.96
2018-07-05T07:19:53.968Z,952.02
2018-07-05T07:20:53.977Z,952.04
2018-07-05T07:21:53.984Z,951.98
2018-07-05T07:22:53.994Z,951.98
2018-07-05T07:23:54.005Z,951.98
2018-07-05T07:24:54.009Z,951.95
2018-07-05T07:25:54.019Z,952.05
2018-07-05T07:26:54.029Z,952.03
2018-07-05T07:27:54.037Z,952.03
2018-07-05T07:28:54.047Z,951.99
2018-07-05T07:29:54.057Z,951.97
2018-07-05T07:30:54.065Z,951.97
2018-07-05T07:31:54.144Z,951.92
2018-07-05T07:32:54.084Z,951.9
2018-07-05T07:33:54.094Z,951.87
2018-07-05T07:34:54.105Z,951.83
2018-07-05T07:35:54.132Z,951.86
2018-07-05T07:36:54.122Z,951.79
2018-07-05T07:37:54.134Z,951.78
2018-07-05T07:38:54.147Z,951.79
2018-07-05T07:39:54.153Z,951.76
2018-07-05T07:40:54.162Z,951.74
2018-07-05T07:41:54.174Z,951.71
2018-07-05T07:42:54.184Z,951.66
2018-07-05T07:43:54.193Z,951.69
2018-07-05T07:44:54.204Z,951.67
2018-07-05T07:45:54.215Z,951.71
2018-07-05T07:46:54.224Z,951.72
2018-07-05T07:47:54.235Z,951.69
2018-07-05T07:48:54.259Z,951.66
2018-07-05T07:49:54.257Z,951.65
2018-07-05T07:50:54.266Z,951.61
2018-07-05T07:51:54.278Z,951.61
2018-07-05T07:52:54.289Z,951.61
2018-07-05T07:53:54.299Z,951.65
2018-07-05T07:54:54.309Z,951.61
2018-07-05T07:55:54.320Z,951.62
2018-07-05T07:56:54.335Z,951.63
2018-07-05T07:57:54.341Z,951.65
2018-07-05T07:58:54.353Z,951.64
2018-07-05T07:59:54.365Z,951.62
2018-07-05T08:00:54.376Z,951.64
2018-07-05T08:01:54.386Z,951.62
2018-07-05T08:02:54.397Z,951.61
2018-07-05T08:03:54.411Z,951.61
2018-07-05T08:04:54.419Z,951.58
2018-07-05T08:05:54.428Z,951.56
2018-07-05T08:06:54.438Z,951.58
2018-07-05T08:07:54.483Z,951.58
2018-07-05T08:08:54.458Z,951.53
2018-07-05T08:09:54.470Z,951.48
2018-07-05T08:10:54.481Z,951.43
2018-07-05T08:11:54.489Z,951.44
2018-07-05T08:12:54.501Z,951.41
2018-07-05T08:13:54.510Z,951.45
2018-07-05T08:14:54.522Z,951.44
2018-07-05T08:15:54.528Z,951.43
2018-07-05T08:16:54.537Z,951.46
2018-07-05T08:17:54.547Z,951.45
2018-07-05T08:18:54.557Z,951.43
2018-07-05T08:19:54.579Z,951.44
2018-07-05T08:20:54.574Z,951.44
2018-07-05T08:21:54.584Z,951.49
2018-07-05T08:22:54.591Z,951.49
2018-07-05T08:23:54.599Z,951.46
2018-07-05T08:24:54.606Z,951.51
2018-07-05T08:25:54.615Z,951.48
2018-07-05T08:26:54.626Z,951.48
2018-07-05T08:27:54.629Z,951.45
2018-07-05T08:28:54.638Z,951.43
2018-07-05T08:29:54.646Z,951.41
2018-07-05T08:30:54.651Z,951.39
2018-07-05T08:31:54.657Z,951.42
2018-07-05T08:32:54.665Z,951.37
2018-07-05T08:33:54.672Z,951.44
2018-07-05T08:34:54.678Z,951.38
2018-07-05T08:35:54.685Z,951.39
2018-07-05T08:36:54.691Z,951.37
2018-07-05T08:37:54.754Z,951.34
2018-07-05T08:38:54.706Z,951.37
2018-07-05T08:39:54.710Z,951.34
2018-07-05T08:40:54.718Z,951.34
2018-07-05T08:41:54.722Z,951.35
2018-07-05T08:42:54.726Z,951.31
2018-07-05T08:43:54.732Z,951.34
2018-07-05T08:44:54.747Z,951.34
2018-07-05T08:45:54.743Z,951.37
2018-07-05T08:46:54.751Z,951.35
2018-07-05T08:47:54.756Z,951.33
2018-07-05T08:48:54.759Z,951.32
2018-07-05T08:49:54.767Z,951.28
2018-07-05T08:50:54.772Z,951.33
2018-07-05T08:51:54.777Z,951.37
2018-07-05T08:52:54.780Z,951.34
2018-07-05T08:53:54.785Z,951.29
2018-07-05T08:54:54.791Z,951.3
2018-07-05T08:55:54.799Z,951.32
2018-07-05T08:56:54.800Z,951.31
2018-07-05T08:57:54.807Z,951.29
2018-07-05T08:58:54.810Z,951.3
2018-07-05T08:59:54.820Z,951.33
2018-07-05T09:00:54.821Z,951.29
2018-07-05T09:01:54.825Z,951.32
2018-07-05T09:02:54.832Z,951.28
2018-07-05T09:03:54.834Z,951.24
2018-07-05T09:04:54.840Z,951.26
2018-07-05T09:05:54.848Z,951.3
2018-07-05T09:06:54.852Z,951.23
2018-07-05T09:07:54.856Z,951.22
2018-07-05T09:08:54.862Z,951.2
2018-07-05T09:09:54.879Z,951.19
2018-07-05T09:10:54.869Z,951.14
2018-07-05T09:11:54.932Z,951.17
2018-07-05T09:12:54.880Z,951.16
2018-07-05T09:13:54.884Z,951.12
2018-07-05T09:14:54.887Z,951.16
2018-07-05T09:15:54.893Z,951.14
2018-07-05T09:16:54.898Z,951.16
2018-07-05T09:17:55.175Z,951.16
2018-07-05T09:18:54.907Z,951.17
2018-07-05T09:19:54.911Z,951.15
2018-07-05T09:20:54.916Z,951.19
2018-07-05T09:21:54.921Z,951.16
2018-07-05T09:22:54.925Z,951.18
2018-07-05T09:23:54.930Z,951.19
2018-07-05T09:24:54.934Z,951.17
2018-07-05T09:25:54.939Z,951.14
2018-07-05T09:26:54.943Z,951.15
2018-07-05T09:27:54.955Z,951.19
2018-07-05T09:28:54.954Z,951.16
2018-07-05T09:29:54.957Z,951.15
2018-07-05T09:30:54.961Z,951.11
2018-07-05T09:31:54.966Z,951.13
2018-07-05T09:32:54.978Z,951.14
2018-07-05T09:33:54.979Z,951.15
2018-07-05T09:34:54.983Z,951.14
2018-07-05T09:35:55.021Z,951.13
2018-07-05T09:36:54.988Z,951.15
2018-07-05T09:37:55.010Z,951.15
2018-07-05T09:38:54.998Z,951.12
2018-07-05T09:39:55.002Z,951.11
2018-07-05T09:40:55.011Z,951.11
2018-07-05T09:41:55.012Z,951.11
2018-07-05T09:42:55.016Z,951.12
2018-07-05T09:43:55.020Z,951.09
2018-07-05T09:44:55.026Z,951.11
2018-07-05T09:45:55.031Z,951.09
2018-07-05T09:46:55.037Z,951.07
2018-07-05T09:47:55.039Z,951.08
2018-07-05T09:48:55.043Z,951.12
2018-07-05T09:49:55.049Z,951.12
2018-07-05T09:50:55.054Z,951.16
2018-07-05T09:51:55.058Z,951.12
2018-07-05T09:52:55.063Z,951.06
2018-07-05T09:53:55.068Z,951.09
2018-07-05T09:54:55.073Z,951.06
2018-07-05T09:55:55.079Z,951.06
2018-07-05T09:56:55.083Z,951.01
2018-07-05T09:57:55.107Z,951
2018-07-05T09:58:55.093Z,950.97
2018-07-05T09:59:55.098Z,950.98
2018-07-05T10:00:55.108Z,950.96
2018-07-05T10:01:55.111Z,950.93
2018-07-05T10:02:55.113Z,950.94
2018-07-05T10:03:55.124Z,950.94
2018-07-05T10:04:55.126Z,950.88
2018-07-05T10:05:55.132Z,950.91
2018-07-05T10:06:55.136Z,950.9
2018-07-05T10:07:55.151Z,950.84
2018-07-05T10:08:55.146Z,950.89
2018-07-05T10:09:55.151Z,950.89
2018-07-05T10:10:55.155Z,950.89
2018-07-05T10:11:55.165Z,950.88
2018-07-05T10:12:55.183Z,950.87
2018-07-05T10:13:55.377Z,950.86
2018-07-05T10:14:55.180Z,950.84
2018-07-05T10:15:55.184Z,950.89
2018-07-05T10:16:55.189Z,950.88
2018-07-05T10:17:55.195Z,950.89
2018-07-05T10:18:55.201Z,950.87
2018-07-05T10:19:55.204Z,950.86
2018-07-05T10:20:55.209Z,950.84
2018-07-05T10:21:55.213Z,950.81
2018-07-05T10:22:55.220Z,950.74
2018-07-05T10:23:55.225Z,950.75
2018-07-05T10:24:55.230Z,950.76
2018-07-05T10:25:55.236Z,950.77
2018-07-05T10:26:55.259Z,950.78
2018-07-05T10:27:55.245Z,950.73
2018-07-05T10:28:55.251Z,950.75
2018-07-05T10:29:55.256Z,950.77
2018-07-05T10:30:55.261Z,950.75
2018-07-05T10:31:55.276Z,950.7
2018-07-05T10:32:55.324Z,950.72
2018-07-05T10:33:55.275Z,950.69
2018-07-05T10:34:55.280Z,950.67
2018-07-05T10:35:55.285Z,950.64
2018-07-05T10:36:55.289Z,950.63
2018-07-05T10:37:55.296Z,950.62
2018-07-05T10:38:55.301Z,950.6
2018-07-05T10:39:55.306Z,950.66
2018-07-05T10:40:55.311Z,950.62
2018-07-05T10:41:55.316Z,950.61
2018-07-05T10:42:55.327Z,950.57
2018-07-05T10:43:55.329Z,950.61
2018-07-05T10:44:55.330Z,950.53
2018-07-05T10:45:55.372Z,950.56
2018-07-05T10:46:55.341Z,950.52
2018-07-05T10:47:55.348Z,950.54
2018-07-05T10:48:55.353Z,950.53
2018-07-05T10:49:55.360Z,950.5
2018-07-05T10:50:55.363Z,950.5
2018-07-05T10:51:55.368Z,950.47
2018-07-05T10:52:55.374Z,950.51
2018-07-05T10:53:55.380Z,950.46
2018-07-05T10:54:55.385Z,950.46
2018-07-05T10:55:55.392Z,950.47
2018-07-05T10:56:55.395Z,950.45
2018-07-05T10:57:55.401Z,950.42
2018-07-05T10:58:55.405Z,950.38
2018-07-05T10:59:55.415Z,950.38
2018-07-05T11:00:55.416Z,950.45
2018-07-05T11:01:55.422Z,950.42
2018-07-05T11:02:55.428Z,950.41
2018-07-05T11:03:55.433Z,950.39
2018-07-05T11:04:55.444Z,950.36
2018-07-05T11:05:55.443Z,950.37
2018-07-05T11:06:55.449Z,950.36
2018-07-05T11:07:55.454Z,950.35
2018-07-05T11:08:55.459Z,950.32
2018-07-05T11:09:55.463Z,950.33
2018-07-05T11:10:55.470Z,950.33
2018-07-05T11:11:55.473Z,950.35
2018-07-05T11:12:55.481Z,950.36
2018-07-05T11:13:55.486Z,950.28
2018-07-05T11:14:55.491Z,950.31
2018-07-05T11:15:55.494Z,950.36
2018-07-05T11:16:55.500Z,950.28
2018-07-05T11:17:55.504Z,950.34
2018-07-05T11:18:55.511Z,950.32
2018-07-05T11:19:55.513Z,950.34
2018-07-05T11:20:55.531Z,950.34
2018-07-05T11:21:55.524Z,950.34
2018-07-05T11:22:55.528Z,950.35
2018-07-05T11:23:55.533Z,950.33
2018-07-05T11:24:55.538Z,950.37
2018-07-05T11:25:55.543Z,950.32
2018-07-05T11:26:55.556Z,950.34
2018-07-05T11:27:55.553Z,950.35
2018-07-05T11:28:55.558Z,950.31
2018-07-05T11:29:55.562Z,950.29
2018-07-05T11:30:55.568Z,950.3
2018-07-05T11:31:55.573Z,950.28
2018-07-05T11:32:55.578Z,950.32
2018-07-05T11:33:55.581Z,950.3
2018-07-05T11:34:55.588Z,950.28
2018-07-05T11:35:55.597Z,950.29
2018-07-05T11:36:55.599Z,950.25
2018-07-05T11:37:55.605Z,950.25
2018-07-05T11:38:55.610Z,950.28
2018-07-05T11:39:55.614Z,950.3
2018-07-05T11:40:55.618Z,950.26
2018-07-05T11:41:55.627Z,950.25
2018-07-05T11:42:55.629Z,950.25
2018-07-05T11:43:55.635Z,950.21
2018-07-05T11:44:55.639Z,950.19
2018-07-05T11:45:55.645Z,950.2
2018-07-05T11:46:55.653Z,950.22
2018-07-05T11:47:55.759Z,950.19
2018-07-05T11:48:55.664Z,950.14
2018-07-05T11:49:55.670Z,950.18
2018-07-05T11:50:55.675Z,950.16
2018-07-05T11:51:55.681Z,950.17
2018-07-05T11:52:55.693Z,950.18
2018-07-05T11:53:55.691Z,950.12
2018-07-05T11:54:55.707Z,950.14
2018-07-05T11:55:55.703Z,950.1
2018-07-05T11:56:55.707Z,950.15
2018-07-05T11:57:55.714Z,950.2
2018-07-05T11:58:55.719Z,950.15
2018-07-05T11:59:55.724Z,950.13
2018-07-05T12:00:55.729Z,950.1
2018-07-05T12:01:55.770Z,950.12
2018-07-05T12:02:55.783Z,950.1
2018-07-05T12:03:55.745Z,950.16
2018-07-05T12:04:55.751Z,950.16
2018-07-05T12:05:55.758Z,950.15
2018-07-05T12:06:55.760Z,950.19
2018-07-05T12:07:55.767Z,950.14
2018-07-05T12:08:55.772Z,950.18
2018-07-05T12:09:55.776Z,950.18
2018-07-05T12:10:55.781Z,950.17
2018-07-05T12:11:55.789Z,950.21
2018-07-05T12:12:55.796Z,950.19
2018-07-05T12:13:55.798Z,950.22
2018-07-05T12:14:55.804Z,950.24
2018-07-05T12:15:55.811Z,950.23
2018-07-05T12:16:55.815Z,950.22
2018-07-05T12:17:55.820Z,950.23
2018-07-05T12:18:55.824Z,950.23
2018-07-05T12:19:55.830Z,950.21
2018-07-05T12:20:55.835Z,950.22
2018-07-05T12:21:55.842Z,950.22
2018-07-05T12:22:55.847Z,950.22
2018-07-05T12:23:55.909Z,950.22
2018-07-05T12:24:55.860Z,950.21
2018-07-05T12:25:55.862Z,950.23
2018-07-05T12:26:55.869Z,950.2
2018-07-05T12:27:55.874Z,950.21
2018-07-05T12:28:55.881Z,950.18
2018-07-05T12:29:55.888Z,950.18
2018-07-05T12:30:55.890Z,950.16